Terminal Aerodrome Forecast
Issued by NWS Jacksonville, FL

Home | Current Version | Previous Version | Text Only | Print | Product List | Glossary On
Versions: 1 2 3 4 5 6 7 8 9 10 11 12 13 14 15 16 17 18 19 20 21
002
FTUS42 KJAX 252325
TAFSSI
TAF
KSSI 252325Z 2600/2624 17006KT P6SM VCSH SCT040 BKN250
      TEMPO 2600/2602 4SM SHRA BR BKN040
     FM260400 20004KT P6SM FEW040 SCT250
     FM260900 21003KT 6SM BR SCT005 BKN250
     FM261400 21006KT P6SM SCT020 BKN250
     FM261700 22008KT P6SM SCT030 SCT250=

USA.gov is the U.S. government's official web portal to all federal, state and local government web resources and services.